TimeMDT,TemperatureF,Dew PointF,Humidity,Sea Level PressureIn,VisibilityMPH,Wind Direction,Wind SpeedMPH,Gust SpeedMPH,PrecipitationIn,Events,Conditions,WindDirDegrees,DateUTC
12:53 AM,15.1,9.0,77,30.12,10.0,SSW,9.2,-,N/A,,Overcast,210,2013-03-18 06:53:00
1:53 AM,15.1,9.0,77,30.10,10.0,SSW,12.7,-,N/A,,Mostly Cloudy,200,2013-03-18 07:53:00
2:53 AM,15.1,9.0,77,30.10,10.0,SSW,10.4,-,N/A,,Clear,200,2013-03-18 08:53:00
3:53 AM,17.1,10.0,74,30.08,10.0,South,6.9,-,N/A,,Overcast,190,2013-03-18 09:53:00
4:53 AM,19.0,10.9,71,30.03,10.0,SSW,11.5,-,N/A,,Overcast,200,2013-03-18 10:53:00
5:53 AM,19.9,12.9,74,30.01,10.0,South,9.2,-,N/A,,Overcast,190,2013-03-18 11:53:00
6:53 AM,21.9,14.0,72,29.99,10.0,SSW,13.8,-,N/A,,Clear,210,2013-03-18 12:53:00
7:53 AM,23.0,14.0,68,29.99,10.0,SSW,12.7,-,N/A,,Clear,200,2013-03-18 13:53:00
8:53 AM,28.9,17.1,61,29.96,10.0,SW,18.4,25.3,N/A,,Partly Cloudy,220,2013-03-18 14:53:00
9:53 AM,32.0,18.0,56,29.95,10.0,SW,20.7,27.6,N/A,,Clear,220,2013-03-18 15:53:00
10:53 AM,37.0,14.0,39,29.94,10.0,WSW,25.3,34.5,N/A,,Clear,240,2013-03-18 16:53:00
11:53 AM,41.0,9.0,27,29.91,10.0,West,25.3,38.0,N/A,,Clear,270,2013-03-18 17:53:00
12:53 PM,39.0,9.0,29,29.91,10.0,West,24.2,36.8,N/A,,Partly Cloudy,260,2013-03-18 18:53:00
1:53 PM,43.0,7.0,23,29.89,10.0,West,29.9,44.9,N/A,,Clear,270,2013-03-18 19:53:00
2:53 PM,39.9,7.0,26,29.90,10.0,West,31.1,40.3,N/A,,Clear,280,2013-03-18 20:53:00
3:53 PM,39.9,7.0,26,29.91,10.0,West,27.6,36.8,N/A,,Clear,270,2013-03-18 21:53:00
4:53 PM,39.9,8.1,27,29.92,10.0,West,29.9,36.8,N/A,,Clear,280,2013-03-18 22:53:00
5:53 PM,39.0,9.0,29,29.94,10.0,West,25.3,32.2,N/A,,Clear,260,2013-03-18 23:53:00
6:53 PM,36.0,12.0,37,29.97,10.0,WSW,17.3,-,N/A,,Clear,250,2013-03-19 00:53:00
7:53 PM,33.1,12.9,43,29.99,10.0,West,8.1,-,N/A,,Clear,270,2013-03-19 01:53:00
8:53 PM,27.0,12.9,56,30.01,10.0,West,6.9,-,N/A,,Clear,260,2013-03-19 02:53:00
9:53 PM,21.9,12.0,66,30.04,10.0,West,8.1,-,N/A,,Clear,260,2013-03-19 03:53:00
10:53 PM,27.0,14.0,58,30.04,10.0,Calm,Calm,-,N/A,,Clear,0,2013-03-19 04:53:00
11:53 PM,23.0,14.0,68,30.06,10.0,West,4.6,-,N/A,,Clear,270,2013-03-19 05:53:00